NCAR-RAP Real-Time Weather Data

Output produced by METARs form (12 August 2020  18:42 UTC)
found at http://weather.rap.ucar.edu/surface/
 
KOMA 121752Z 16020G27KT 10SM FEW030 SCT160 OVC250 30/22 A2996 RMK AO2 PK WND 16027/1743 SLP135 T03000217 10306 20228 58007
KOMA 121652Z 18014KT 10SM SCT015 OVC250 28/22 A2997 RMK AO2 SLP140 T02830217
KOMA 121615Z 16016KT 10SM SCT013 BKN250 28/22 A2998 RMK AO2 T02780222
KOMA 121559Z 16016KT 10SM BKN011 BKN250 27/22 A2998 RMK AO2 T02720222
KOMA 121552Z 18015KT 7SM BKN009 BKN250 26/22 A2998 RMK AO2 SLP142 T02610222
KOMA 121452Z 16017KT 5SM HZ OVC007 25/22 A2998 RMK AO2 SLP143 T02500222 58004
KOMA 121352Z 15015KT 5SM BR OVC006 24/22 A3000 RMK AO2 SLP151 T02390217
KOMA 121252Z 17010KT 5SM BR OVC006 23/22 A3001 RMK AO2 SLP154 T02330217
KOMA 121152Z 17010KT 6SM BR OVC006 23/22 A2999 RMK AO2 SLP147 T02280217 10244 20222 53013
KOMA 121100Z 14011KT 10SM BKN007 22/21 A2996 RMK AO2 T02220211
KOMA 121052Z 15010KT 10SM SCT250 22/21 A2996 RMK AO2 SLP137 T02220211
KOMA 120952Z 12009KT 10SM SCT250 23/21 A2995 RMK AO2 SLP132 T02280211
KOMA 120852Z 13008KT 10SM BKN200 23/22 A2995 RMK AO2 SLP133 T02330217 58011
KOMA 120752Z 13007KT 10SM BKN200 23/22 A2997 RMK AO2 SLP138 T02330217
KOMA 120652Z 12003KT 10SM BKN050 BKN200 24/22 A2998 RMK AO2 SLP143 T02440217
KOMA 120552Z 16008KT 10SM FEW023 FEW120 BKN200 24/22 A2999 RMK AO2 SLP144 T02440222 10300 20244 403110150 51009
KOMA 120452Z 15008KT 10SM FEW016 SCT120 BKN250 25/22 A2998 RMK AO2 SLP144 T02500217
KOMA 120352Z 15010KT 10SM SCT100 BKN250 26/22 A2997 RMK AO2 SLP141 T02560217
KOMA 120252Z 15010KT 10SM SCT250 26/22 A2996 RMK AO2 SLP136 T02610217 53010
KOMA 120152Z 13010KT 10SM FEW030 SCT250 27/22 A2991 RMK AO2 SLP121 T02720217
KOMA 120052Z 13012KT 10SM SCT030 29/22 A2991 RMK AO2 SLP121 T02890217
KOMA 112352Z 15011KT 10SM FEW035 FEW250 30/21 A2993 RMK AO2 SLP126 T03000211 10311 20278 58011
KOMA 112252Z 15007KT 10SM SCT034 SCT250 30/21 A2995 RMK AO2 SLP132 T03000211
KOMA 112152Z 10007KT 10SM SCT034 SCT250 31/21 A2995 RMK AO2 SLP135 T03060206
KOMA 112052Z 16009KT 10SM SCT035 SCT250 31/21 A2996 RMK AO2 SLP138 T03060206 57012
KOMA 111952Z 19007KT 10SM SCT035 SCT250 29/20 A2997 RMK AO2 SLP141 T02940200
KOMA 111852Z 17009KT 10SM SCT035 SCT250 29/19 A2999 RMK AO2 SLP146 T02940194
KOMA 111752Z 15005G16KT 10SM SCT035 SCT250 28/18 A3000 RMK AO2 SLP150 T02780183 10283 20156 58006
KOMA 111652Z 12010KT 10SM FEW250 27/18 A3001 RMK AO2 SLP153 T02670183
KOMA 111552Z 14006KT 10SM FEW250 26/17 A3001 RMK AO2 SLP155 T02560167
KOMA 111452Z 15007KT 10SM FEW250 23/14 A3002 RMK AO2 SLP157 T02330144 58002
KOMA 111352Z 14009KT 10SM FEW250 22/14 A3003 RMK AO2 SLP164 T02170139
KOMA 111252Z 00000KT 10SM FEW250 17/14 A3002 RMK AO2 SLP160 T01720144
KOMA 111152Z 35003KT 10SM FEW250 16/14 A3002 RMK AO2 SLP159 T01560139 10200 20150 53008
KOMA 111052Z 01008KT 10SM FEW250 16/14 A3001 RMK AO2 SLP155 T01560139
KOMA 110952Z 33003KT 10SM FEW250 16/14 A3000 RMK AO2 SLP150 T01560139
KOMA 110852Z 00000KT 10SM BKN250 16/14 A3000 RMK AO2 SLP150 T01610139 50003
KOMA 110752Z 34003KT 10SM BKN250 17/14 A3000 RMK AO2 SLP151 T01720139
KOMA 110652Z 00000KT 10SM SCT250 18/14 A2999 RMK AO2 SLP149 T01780144
KOMA 110552Z VRB03KT 10SM BKN250 20/13 A2999 RMK AO2 SLP147 T02000128 10261 20194 403000189 51009
KOMA 110452Z 01006KT 10SM BKN250 19/16 A2997 RMK AO2 SLP143 T01940161
KOMA 110352Z 36005KT 10SM SCT250 20/17 A2998 RMK AO2 SLP146 T02000172
KOMA 110252Z 36006KT 10SM FEW250 21/17 A2996 RMK AO2 SLP139 T02110172 50005
KOMA 110152Z 01005KT 10SM SCT100 22/18 A2997 RMK AO2 SLP139 T02220178
KOMA 110052Z 01009KT 10SM FEW100 FEW250 24/18 A2995 RMK AO2 SLP133 T02440178
KOMA 102352Z 36010KT 10SM FEW100 FEW250 27/18 A2994 RMK AO2 SLP131 T02670183 10300 20250 55003
KOMA 102252Z 36011KT 10SM FEW100 SCT250 28/16 A2994 RMK AO2 SLP129 T02830161
KOMA 102152Z 35011KT 10SM FEW120 FEW150 SCT250 30/17 A2994 RMK AO2 SLP129 T03000167
KOMA 102052Z 36009KT 10SM FEW120 FEW150 SCT250 29/16 A2995 RMK AO2 SLP133 T02890161 58004
KOMA 101952Z 15006KT 10SM FEW120 SCT250 27/16 A2997 RMK AO2 SLP139 T02720161
KOMA 101852Z 15015KT 10SM SCT110 SCT250 27/15 A2995 RMK AO2 SLP133 T02720150